Lagrange, IN (46761)

4:56 AM EST on February 10, 2016 (GMT -0500)
Adams Lake | | Change Station
CLOSE
Current Station
Personal Weather Station
Location: Wolcottville, IN
Elevation: 955 ft
Nearby Weather Stations

Elev 955 ft 41.56 °N, 85.32 °W | Updated 9 minutes ago

Snow
Snow
17.8 °F
Feels Like 18 °F
N
2.7
Wind Variable Wind from NNW

Today
High -- | Low -- °F
--% Chance of Precip.
Yesterday
High -- | Low -- °F
Precip. -- in
Pressure 29.80 in
Visibility 2.5 miles
Clouds Scattered Clouds 1100 ft
Mostly Cloudy 2200 ft
Overcast 2800 ft
Windchill 18 °F
Dew Point 15 °F
Humidity 87%
Rainfall 0.00 in
Snow Depth Not available.
7:44 AM 6:08 PM
Waxing Crescent, 4% visible
METAR KIRS 100935Z AUTO 32005KT 2 1/2SM -SN SCT011 BKN022 OVC028 M08/M09 A2980 RMK AO2 T10771095
Pressure 29.80 in
Visibility 2.5 miles
Clouds Scattered Clouds 1100 ft
Mostly Cloudy 2200 ft
Overcast 2800 ft
Windchill 18 °F
Dew Point 15 °F
Humidity 87%
Rainfall 0.00 in
Snow Depth Not available.
7:44 AM 6:08 PM
Waxing Crescent, 4% visible
METAR KIRS 100935Z AUTO 32005KT 2 1/2SM -SN SCT011 BKN022 OVC028 M08/M09 A2980 RMK AO2 T10771095

10-Day Weather Forecast

Almanac

Astronomy

Feb. 10, 2016 Rise Set
Actual Time
Civil Twilight
Nautical Twilight
Astronomical Twilight
Moon
Length of Visible Light
Length of Day
Tomorrow will be .
, % of the Moon is Illuminated

Today's Extremes

State Highs State Lows

Community

WunderPhotos

Upload Photos

1,891,826 photos uploaded!

WunderBlog® & News

Nearby

Air Quality

  Air Quality AQ Index Pollutant
Not available.

Snow Depth

Station Depth Elevation

Earthquake Activity

City Distance Mag. Time & Date
Minimum magnitude displayed is 2.5.

Coastal Water Temperatures

Place Temperature

Stations

Nearby Weather Stations

Station Location Temp. Windchill Dew Point Humidity Wind Precip. Elev Updated Type
                   

Watches & Warnings

There are currently no watches in effect.